Time;durP1;ratioP1;P1;durP2;ratioP2;P2;SDS_P1;SDS_P2;PMS_P1;PMS_P2;Temp;Humidity;BMP_temperature;BMP_pressure;BME280_temperature;BME280_humidity;BME280_pressure;Samples;Min_cycle;Max_cycle;Signal;HPM_P1;HPM_P2
2022/01/15 00:02:52;;;;;;;112.90;56.83;;;;;;;0.94;93.07;103126.84;10475205;28;20392;-78
2022/01/15 00:07:52;;;;;;;106.88;51.25;;;;;;;0.86;92.57;103131.03;10497603;28;20115;-78
2022/01/15 00:12:57;;;;;;;123.03;52.28;;;;;;;0.76;92.62;103143.53;10496409;28;20130;-77
2022/01/15 00:18:15;;;;;;;127.40;56.67;;;;;;;0.73;93.05;103132.84;10496964;28;20040;-78
2022/01/15 00:23:15;;;;;;;131.18;59.05;;;;;;;0.70;92.85;103128.22;10497466;28;20024;-77
2022/01/15 00:28:16;;;;;;;100.97;47.50;;;;;;;0.76;93.20;103122.00;10497056;28;20456;-78
2022/01/15 00:33:16;;;;;;;122.00;53.55;;;;;;;0.72;93.33;103118.09;10496752;28;20062;-78
2022/01/15 00:38:17;;;;;;;114.18;53.75;;;;;;;0.68;93.12;103123.59;10496903;28;20080;-78
2022/01/15 00:43:18;;;;;;;117.35;51.35;;;;;;;0.67;93.48;103116.59;10496853;28;20051;-78
2022/01/15 00:48:18;;;;;;;132.17;53.93;;;;;;;0.71;93.27;103105.94;10495399;28;20063;-78
2022/01/15 00:53:19;;;;;;;104.50;52.90;;;;;;;0.70;93.62;103102.47;10496025;28;20067;-78
2022/01/15 00:58:19;;;;;;;133.23;52.15;;;;;;;0.63;93.59;103094.69;10479012;28;20422;-78
2022/01/15 01:03:20;;;;;;;98.38;50.22;;;;;;;0.60;93.56;103093.38;10496242;28;20048;-78
2022/01/15 01:08:20;;;;;;;103.97;47.85;;;;;;;0.56;93.93;103086.94;10497140;28;20501;-78
2022/01/15 01:24:01;;;;;;;172.60;61.15;;;;;;;0.52;93.68;103054.69;10494399;28;20035;-78
2022/01/15 01:29:16;;;;;;;133.80;53.10;;;;;;;0.66;93.78;103052.91;10493837;28;20064;-78
2022/01/15 01:34:17;;;;;;;135.88;56.50;;;;;;;0.63;94.03;103047.38;10495092;28;20043;-78
2022/01/15 01:39:20;;;;;;;101.80;48.50;;;;;;;0.56;93.81;103053.44;10492603;28;20056;-78
2022/01/15 01:44:24;;;;;;;99.88;47.47;;;;;;;0.51;94.14;103042.56;10494417;28;20068;-78
2022/01/15 01:49:25;;;;;;;109.28;49.90;;;;;;;0.47;93.72;103042.91;10493061;28;20044;-78
2022/01/15 01:54:25;;;;;;;139.00;55.83;;;;;;;0.42;94.21;103047.50;10493448;28;20024;-78
2022/01/15 01:59:35;;;;;;;139.00;57.28;;;;;;;0.42;93.95;103033.69;10475961;28;20041;-78
2022/01/15 02:04:35;;;;;;;126.00;54.22;;;;;;;0.41;93.85;103043.09;10494296;28;20025;-78
2022/01/15 02:09:36;;;;;;;113.75;51.50;;;;;;;0.42;93.96;103031.09;10494544;28;20044;-78
2022/01/15 02:14:36;;;;;;;104.00;48.65;;;;;;;0.33;94.19;103029.97;10495890;28;20075;-78
2022/01/15 02:19:46;;;;;;;99.70;47.80;;;;;;;0.30;93.79;103038.25;10493855;28;20067;-78
2022/01/15 02:24:48;;;;;;;116.72;48.15;;;;;;;0.26;93.57;103033.47;10493858;28;20396;-78
2022/01/15 02:29:48;;;;;;;98.65;44.30;;;;;;;0.27;93.78;103033.63;10477827;28;20090;-78
2022/01/15 02:34:49;;;;;;;84.38;43.17;;;;;;;0.17;93.97;103027.16;10493164;28;20121;-78
2022/01/15 02:39:49;;;;;;;119.20;49.58;;;;;;;0.24;94.05;103024.63;10500574;28;20037;-78
2022/01/15 02:44:58;;;;;;;110.38;50.10;;;;;;;0.14;93.92;103008.03;10500580;28;20032;-77
2022/01/15 02:49:58;;;;;;;146.88;47.08;;;;;;;0.12;93.79;103018.84;10500996;28;20386;-78
2022/01/15 02:54:59;;;;;;;117.93;48.17;;;;;;;0.12;94.11;103011.13;10500133;28;20119;-78
2022/01/15 02:59:59;;;;;;;96.88;47.53;;;;;;;0.11;94.35;102991.25;10501805;28;20032;-78
2022/01/15 03:05:00;;;;;;;93.88;45.33;;;;;;;0.08;93.99;102973.78;10483718;28;20139;-78
2022/01/15 03:10:01;;;;;;;121.40;47.83;;;;;;;0.12;94.23;102973.44;10499291;28;20060;-78
2022/01/15 03:15:04;;;;;;;102.00;42.72;;;;;;;0.08;94.12;102963.50;10499246;28;20029;-78
2022/01/15 03:20:05;;;;;;;107.30;43.08;;;;;;;0.13;94.38;102959.84;10501169;28;20032;-78
2022/01/15 03:25:06;;;;;;;128.48;50.30;;;;;;;0.07;94.14;102956.50;10500527;28;20062;-78
2022/01/15 03:30:08;;;;;;;89.18;38.33;;;;;;;0.08;94.46;102959.97;10498173;28;20032;-78
2022/01/15 03:35:14;;;;;;;77.45;35.97;;;;;;;0.05;93.89;102949.31;10499104;28;20102;-78
2022/01/15 03:40:15;;;;;;;75.38;34.42;;;;;;;0.07;93.88;102943.63;10499936;28;20039;-78
2022/01/15 03:45:16;;;;;;;69.22;33.45;;;;;;;0.03;93.82;102941.41;10499192;28;20028;-79
2022/01/15 03:50:17;;;;;;;89.00;38.30;;;;;;;0.04;94.55;102932.94;10496577;28;20037;-78
2022/01/15 03:55:17;;;;;;;78.03;35.90;;;;;;;0.02;93.93;102939.56;10497650;28;20059;-78
2022/01/15 04:00:24;;;;;;;67.75;32.10;;;;;;;-0.02;93.91;102927.03;10496877;28;20037;-78
2022/01/15 04:05:25;;;;;;;68.40;31.20;;;;;;;-0.04;94.17;102923.34;10481160;28;20067;-78
2022/01/15 04:10:28;;;;;;;69.38;29.58;;;;;;;-0.05;94.18;102914.69;10496118;28;20052;-78
2022/01/15 04:15:29;;;;;;;63.00;27.55;;;;;;;-0.10;94.27;102908.06;10496789;28;20479;-78
2022/01/15 04:20:29;;;;;;;73.85;32.67;;;;;;;-0.17;nan;102902.88;10497840;28;20107;-78
2022/01/15 04:25:30;;;;;;;84.28;31.73;;;;;;;-0.16;93.98;102894.44;10498771;28;20130;-77
2022/01/15 04:30:31;;;;;;;61.28;29.88;;;;;;;-0.16;94.18;102882.50;10497240;28;20429;-78
2022/01/15 04:35:36;;;;;;;58.40;27.75;;;;;;;-0.17;94.27;102880.66;10498526;28;20128;-78
2022/01/15 04:40:37;;;;;;;66.70;23.95;;;;;;;-0.12;94.59;102875.16;10497071;28;20039;-77
2022/01/15 04:45:37;;;;;;;54.63;25.15;;;;;;;-0.22;94.08;102879.16;10496532;28;20027;-78
2022/01/15 04:50:38;;;;;;;67.72;29.52;;;;;;;-0.19;94.02;102878.59;10496131;28;20029;-77
2022/01/15 04:55:38;;;;;;;71.78;33.40;;;;;;;-0.22;94.29;102873.09;10495569;28;20601;-78
2022/01/15 05:00:39;;;;;;;77.72;32.60;;;;;;;-0.18;93.99;102868.53;10495567;28;20032;-78
2022/01/15 05:05:39;;;;;;;66.60;29.00;;;;;;;-0.21;94.48;102852.69;10488748;28;20119;-78
2022/01/15 05:10:46;;;;;;;64.15;31.05;;;;;;;-0.21;94.00;102859.47;10475126;28;20068;-78
2022/01/15 05:15:46;;;;;;;61.95;28.77;;;;;;;-0.21;94.35;102859.47;10491578;28;20033;-78
2022/01/15 05:20:47;;;;;;;61.90;30.92;;;;;;;-0.22;94.62;102863.72;10493088;28;20485;-76
2022/01/15 05:25:47;;;;;;;70.45;34.08;;;;;;;-0.18;94.64;102854.72;10493088;28;20036;-77
2022/01/15 05:30:50;;;;;;;81.80;35.83;;;;;;;-0.11;94.62;102853.81;10493169;28;20127;-77
2022/01/15 05:35:50;;;;;;;80.90;33.35;;;;;;;-0.22;94.99;102850.84;10492928;28;20080;-77
2022/01/15 05:40:51;;;;;;;65.18;30.77;;;;;;;-0.20;94.68;102851.97;10493708;28;20044;-78
2022/01/15 05:45:51;;;;;;;81.47;32.22;;;;;;;-0.26;94.28;102845.13;10490790;28;20024;-78
2022/01/15 05:50:54;;;;;;;80.95;32.38;;;;;;;-0.35;94.42;102856.13;10474166;28;20086;-78
2022/01/15 05:55:55;;;;;;;69.97;31.65;;;;;;;-0.41;93.78;102842.50;10447528;28;20071;-78
2022/01/15 06:00:55;;;;;;;66.57;31.77;;;;;;;-0.44;94.15;102826.69;10475637;28;20720;-79
2022/01/15 06:05:56;;;;;;;83.45;29.77;;;;;;;-0.46;94.40;102815.28;10489810;28;20059;-77
2022/01/15 06:10:56;;;;;;;70.93;30.40;;;;;;;-0.48;94.50;102804.81;10464299;28;20124;-78
2022/01/15 06:15:57;;;;;;;70.43;32.05;;;;;;;-0.53;94.72;102802.41;10491141;28;20115;-77
2022/01/15 06:20:57;;;;;;;67.18;29.50;;;;;;;-0.56;94.01;102805.53;10523430;28;20119;-76
2022/01/15 06:25:58;;;;;;;54.25;28.92;;;;;;;-0.58;94.28;102800.91;10501669;28;20492;-77
2022/01/15 06:30:58;;;;;;;75.22;31.77;;;;;;;-0.56;94.73;102800.38;10486991;28;20036;-78
2022/01/15 06:35:59;;;;;;;64.90;30.27;;;;;;;-0.53;94.44;102799.81;10522994;28;20052;-77
2022/01/15 06:40:59;;;;;;;78.75;29.77;;;;;;;-0.47;94.76;102800.56;10532701;28;20031;-77
2022/01/15 06:46:00;;;;;;;81.45;32.95;;;;;;;-0.46;94.90;102787.94;10522981;28;20465;-77
2022/01/15 06:51:01;;;;;;;80.47;32.17;;;;;;;-0.46;94.56;102781.84;10540311;28;20539;-78
2022/01/15 06:56:01;;;;;;;91.78;34.63;;;;;;;-0.43;94.34;102792.50;10537211;28;20027;-77
2022/01/15 07:01:02;;;;;;;99.47;34.25;;;;;;;-0.42;94.38;102796.91;10538656;28;20153;-78
2022/01/15 07:06:02;;;;;;;96.53;37.53;;;;;;;-0.42;94.90;102799.50;10538496;28;20486;-78
2022/01/15 07:11:03;;;;;;;77.60;31.00;;;;;;;-0.38;95.01;102800.81;10541695;28;20036;-78
2022/01/15 07:16:03;;;;;;;71.93;30.60;;;;;;;-0.38;94.54;102803.38;10540263;28;20071;-78
2022/01/15 07:21:04;;;;;;;108.13;39.17;;;;;;;-0.36;94.48;102801.91;10538796;28;20032;-77
2022/01/15 07:26:04;;;;;;;89.97;32.38;;;;;;;-0.34;94.52;102797.88;10539795;28;20466;-78
2022/01/15 07:31:05;;;;;;;74.30;33.08;;;;;;;-0.41;94.64;102796.19;10537881;28;20032;-77
2022/01/15 07:36:06;;;;;;;87.07;33.05;;;;;;;-0.45;94.67;102800.06;10538225;28;20067;-77
2022/01/15 07:41:11;;;;;;;71.88;29.65;;;;;;;-0.41;94.70;102796.19;10522179;28;20121;-77
2022/01/15 07:46:11;;;;;;;78.28;33.42;;;;;;;-0.37;95.21;102806.13;10537450;28;20027;-77
2022/01/15 07:51:12;;;;;;;112.38;37.42;;;;;;;-0.36;95.21;102795.09;10523103;28;20071;-77
2022/01/15 07:56:12;;;;;;;76.28;35.33;;;;;;;-0.27;94.62;102789.25;10538493;28;20036;-77
2022/01/15 08:01:13;;;;;;;61.97;29.15;;;;;;;-0.24;94.60;102782.81;10538327;28;20547;-78
2022/01/15 08:06:14;;;;;;;95.03;36.40;;;;;;;-0.23;95.01;102781.16;10538247;28;20016;-78
2022/01/15 08:11:14;;;;;;;84.95;33.92;;;;;;;-0.25;94.99;102780.06;10537562;28;20024;-78
2022/01/15 08:16:15;;;;;;;83.50;32.25;;;;;;;-0.22;95.34;102775.28;10537164;28;20043;-78
2022/01/15 08:21:15;;;;;;;80.93;34.78;;;;;;;-0.20;95.02;102773.81;10519985;28;20048;-78
2022/01/15 08:26:16;;;;;;;73.07;34.70;;;;;;;-0.15;94.57;102767.56;10535910;28;20032;-78
2022/01/15 08:31:16;;;;;;;76.05;33.55;;;;;;;-0.04;95.23;102774.03;10535305;28;20479;-78
2022/01/15 08:36:17;;;;;;;63.05;29.08;;;;;;;-0.08;94.42;102780.44;10537571;28;20096;-78
2022/01/15 08:41:18;;;;;;;69.82;27.38;;;;;;;-0.08;95.02;102779.53;10536386;28;20530;-78
2022/01/15 08:46:19;;;;;;;59.72;28.83;;;;;;;-0.08;94.42;102775.31;10518243;28;20028;-79
2022/01/15 08:51:20;;;;;;;70.30;31.98;;;;;;;-0.15;94.15;102770.13;10535017;28;20036;-78
2022/01/15 08:56:20;;;;;;;62.97;31.15;;;;;;;-0.19;94.33;102768.88;10519452;28;20383;-79
2022/01/15 09:01:21;;;;;;;79.68;34.50;;;;;;;-0.14;94.30;102768.50;10519143;28;20052;-80
2022/01/15 09:06:22;;;;;;;84.82;34.53;;;;;;;-0.05;94.02;102762.81;10467618;28;20033;-78
2022/01/15 09:11:22;;;;;;;82.80;34.10;;;;;;;-0.07;94.38;102756.53;10453474;28;20548;-79
2022/01/15 09:16:23;;;;;;;63.30;32.22;;;;;;;-0.05;94.91;102754.16;10417685;28;20745;-79
2022/01/15 09:21:24;;;;;;;81.65;35.15;;;;;;;-0.10;94.04;102756.19;10452455;28;20620;-78
2022/01/15 09:26:46;;;;;;;60.03;31.38;;;;;;;0.06;93.83;102755.44;10451502;28;20389;-79
2022/01/15 09:31:45;;;;;;;69.03;33.83;;;;;;;0.00;93.53;102758.22;10451830;28;20036;-78
2022/01/15 09:36:45;;;;;;;70.63;33.05;;;;;;;0.01;93.46;102765.22;10432502;28;20072;-78
2022/01/15 09:41:48;;;;;;;69.30;33.72;;;;;;;-0.05;93.50;102754.16;10453301;28;20462;-78
2022/01/15 09:46:48;;;;;;;;;;;;;;;0.05;93.40;102748.47;10434010;28;20087;-79
2022/01/15 09:51:49;;;;;;;72.10;33.45;;;;;;;-0.03;93.38;102756.19;10452388;28;19931;-78
2022/01/15 09:56:49;;;;;;;79.60;35.78;;;;;;;0.04;92.95;102749.19;10449550;28;20061;-79
2022/01/15 10:01:50;;;;;;;79.78;35.90;;;;;;;0.02;93.30;102754.19;10450738;28;20206;-80
2022/01/15 10:07:13;;;;;;;76.88;38.33;;;;;;;0.20;93.25;102742.56;10450491;28;20036;-80
2022/01/15 10:12:25;;;;;;;77.20;40.55;;;;;;;0.23;93.40;102742.94;10449610;28;20029;-79
2022/01/15 10:17:28;;;;;;;88.68;41.25;;;;;;;0.24;92.83;102737.06;10449276;28;20033;-80
2022/01/15 10:22:28;;;;;;;;;;;;;;;0.35;92.72;102734.84;10433617;28;20069;-80
2022/01/15 10:27:30;;;;;;;66.90;38.85;;;;;;;0.46;92.81;102738.69;10482570;28;19920;-80
2022/01/15 10:32:32;;;;;;;114.95;66.85;;;;;;;0.48;92.32;102732.97;10487177;28;20036;-81
2022/01/15 10:37:37;;;;;;;76.97;44.92;;;;;;;0.65;92.58;102737.56;10467625;28;20044;-80
2022/01/15 10:42:37;;;;;;;53.00;34.20;;;;;;;0.67;92.17;102733.50;10492145;28;20029;-78
2022/01/15 10:47:48;;;;;;;58.22;34.95;;;;;;;0.60;91.51;102737.75;10474375;28;20036;-79
2022/01/15 10:52:48;;;;;;;60.47;32.28;;;;;;;0.60;91.13;102725.78;10488381;28;20067;-79
2022/01/15 10:57:58;;;;;;;70.28;35.35;;;;;;;0.65;91.24;102732.41;10451419;28;20127;-79
2022/01/15 11:03:00;;;;;;;70.60;40.17;;;;;;;0.63;91.29;102717.47;10424268;28;20029;-78
2022/01/15 11:08:12;;;;;;;68.18;40.03;;;;;;;0.65;90.76;102714.38;10530853;28;20028;-79
2022/01/15 11:13:14;;;;;;;73.22;38.75;;;;;;;0.69;91.17;102713.97;10496202;28;20058;-79
2022/01/15 11:18:27;;;;;;;63.35;36.08;;;;;;;0.91;91.11;102705.25;10498796;28;20039;-79
2022/01/15 11:23:27;;;;;;;;;;;;;;;0.87;90.53;102696.25;10498124;28;20031;-79
2022/01/15 11:28:29;;;;;;;60.55;36.38;;;;;;;0.83;90.18;102696.63;10510165;28;20281;-79
2022/01/15 11:33:39;;;;;;;57.45;36.45;;;;;;;0.87;90.37;102693.66;10479655;28;20037;-78
2022/01/15 11:38:46;;;;;;;64.93;35.65;;;;;;;0.88;90.17;102690.34;10496449;28;20127;-79
2022/01/15 11:43:47;;;;;;;64.68;37.50;;;;;;;0.91;90.05;102682.03;10496167;28;20035;-78
2022/01/15 11:48:48;;;;;;;62.50;36.45;;;;;;;0.88;90.05;102677.47;10479224;28;20063;-78
2022/01/15 11:54:00;;;;;;;65.38;38.75;;;;;;;0.95;89.92;102663.59;10480107;28;20020;-79
2022/01/15 11:59:23;;;;;;;63.83;35.85;;;;;;;1.04;89.52;102656.03;10461460;28;20044;-78
2022/01/15 12:04:25;;;;;;;64.57;38.53;;;;;;;1.02;89.96;102648.09;10480360;28;20029;-79
2022/01/15 12:09:32;;;;;;;57.17;35.38;;;;;;;1.07;89.85;102643.47;10494034;28;20115;-78
2022/01/15 12:14:48;;;;;;;68.25;37.78;;;;;;;1.14;89.94;102630.53;10477749;28;20025;-79
2022/01/15 12:19:50;;;;;;;76.40;40.20;;;;;;;1.19;89.98;102624.25;10459647;28;20044;-79
2022/01/15 12:24:51;;;;;;;54.23;35.83;;;;;;;1.17;89.61;102623.16;10493944;28;20036;-78
2022/01/15 12:30:27;;;;;;;60.40;36.60;;;;;;;1.12;89.79;102607.13;10476696;28;20040;-78
2022/01/15 12:35:32;;;;;;;59.25;37.72;;;;;;;1.14;90.19;102607.31;10478490;28;20060;-79
2022/01/15 12:40:49;;;;;;;64.43;38.33;;;;;;;1.11;89.64;102604.41;10494352;28;20039;-79
2022/01/15 12:45:55;;;;;;;68.03;38.22;;;;;;;1.08;89.96;102602.38;10494393;28;20032;-79
2022/01/15 12:50:58;;;;;;;70.18;36.83;;;;;;;1.10;90.09;102593.16;10476044;28;20035;-79
2022/01/15 12:55:58;;;;;;;72.35;40.88;;;;;;;1.14;89.93;102585.00;10494095;28;20044;-79
2022/01/15 13:01:01;;;;;;;80.45;44.90;;;;;;;1.08;90.28;102575.69;10492685;28;20042;-79
2022/01/15 13:06:03;;;;;;;71.75;43.13;;;;;;;1.04;90.27;102574.41;10492815;28;20031;-79
2022/01/15 13:16:23;;;;;;;71.78;39.78;;;;;;;0.95;90.03;102568.19;10460779;28;20045;-79
2022/01/15 13:21:28;;;;;;;81.35;45.60;;;;;;;0.98;90.87;102572.06;10458898;28;20086;-79
2022/01/15 13:26:41;;;;;;;79.07;42.03;;;;;;;1.06;91.00;102556.53;10492983;28;20025;-79
2022/01/15 13:31:43;;;;;;;68.55;40.97;;;;;;;0.94;90.73;102556.97;10478351;28;20051;-79
2022/01/15 13:36:45;;;;;;;84.35;47.25;;;;;;;1.04;91.31;102550.28;10458130;28;20036;-79
2022/01/15 13:41:46;;;;;;;115.93;68.80;;;;;;;1.16;91.01;102543.94;10476179;28;20450;-79
2022/01/15 13:46:49;;;;;;;78.75;43.30;;;;;;;1.15;91.34;102535.25;10474448;28;20095;-79
2022/01/15 13:57:13;;;;;;;110.22;57.75;;;;;;;1.05;91.02;102526.34;10492381;28;20036;-79
2022/01/15 14:02:14;;;;;;;111.30;58.45;;;;;;;1.03;91.01;102518.41;10491665;28;20036;-80
2022/01/15 14:07:14;;;;;;;86.03;49.47;;;;;;;1.02;90.71;102514.00;10491240;28;20498;-79
2022/01/15 14:12:15;;;;;;;91.88;45.15;;;;;;;1.08;91.34;102504.38;10473667;28;20086;-79
2022/01/15 14:17:22;;;;;;;100.15;45.58;;;;;;;1.15;91.61;102499.16;10458236;28;20024;-79
2022/01/15 14:22:29;;;;;;;93.97;43.58;;;;;;;0.93;90.89;102507.81;10475794;28;20539;-82
2022/01/15 14:27:30;;;;;;;92.15;48.47;;;;;;;0.84;91.16;102512.84;10491865;28;20506;-79
2022/01/15 14:32:30;;;;;;;91.80;45.63;;;;;;;0.90;91.39;102492.94;10461745;28;20149;-79
2022/01/15 14:37:31;;;;;;;85.57;47.08;;;;;;;0.93;91.95;102489.75;10481873;28;20377;-79
2022/01/15 14:42:31;;;;;;;89.45;48.05;;;;;;;0.91;91.63;102483.50;10499897;28;20123;-79
2022/01/15 14:47:32;;;;;;;93.85;48.78;;;;;;;0.81;91.58;102489.31;10464386;28;20459;-79
2022/01/15 14:52:32;;;;;;;116.22;51.25;;;;;;;0.67;91.54;102480.00;10498341;28;20076;-80
2022/01/15 14:57:33;;;;;;;117.28;54.13;;;;;;;0.63;91.81;102490.69;10464232;28;20083;-80
2022/01/15 15:02:36;;;;;;;91.85;53.67;;;;;;;0.50;92.24;102484.16;10500364;28;20160;-79
2022/01/15 15:07:36;;;;;;;116.43;54.40;;;;;;;0.54;92.36;102478.59;10497401;28;20029;-79
2022/01/15 15:12:58;;;;;;;90.72;47.50;;;;;;;0.64;92.72;102482.22;10497094;28;20041;-79
2022/01/15 15:17:58;;;;;;;99.55;51.72;;;;;;;0.66;92.40;102483.31;10496721;28;20047;-79
2022/01/15 15:22:58;;;;;;;114.03;60.92;;;;;;;0.57;92.53;102480.63;10447378;28;20056;-78
2022/01/15 15:27:59;;;;;;;111.57;57.83;;;;;;;0.56;92.99;102484.84;10497849;28;20052;-79
2022/01/15 15:33:00;;;;;;;101.90;58.20;;;;;;;0.60;93.04;102477.47;10495972;28;20039;-79
2022/01/15 15:38:00;;;;;;;146.85;72.60;;;;;;;0.65;93.15;102474.69;10496337;28;20058;-79
2022/01/15 15:43:01;;;;;;;133.38;73.40;;;;;;;0.56;92.85;102468.50;10479929;28;20033;-78
2022/01/15 15:48:01;;;;;;;140.02;72.07;;;;;;;0.58;93.16;102460.16;10495897;28;20032;-78
2022/01/15 15:53:02;;;;;;;140.30;70.95;;;;;;;0.51;92.65;102455.06;10496147;28;20056;-79
2022/01/15 15:58:03;;;;;;;135.70;74.03;;;;;;;0.41;93.07;102457.34;10496997;28;20036;-79
2022/01/15 16:03:04;;;;;;;183.30;71.90;;;;;;;0.38;92.79;102449.25;10478161;28;20029;-79
2022/01/15 16:08:04;;;;;;;142.60;62.83;;;;;;;0.29;93.12;102457.75;10480151;28;20463;-81
2022/01/15 16:13:06;;;;;;;123.82;58.08;;;;;;;0.34;93.22;102441.91;10523125;28;20088;-80
2022/01/15 16:18:07;;;;;;;128.23;63.57;;;;;;;0.37;93.23;102439.69;10493117;28;20028;-81
2022/01/15 16:23:08;;;;;;;117.55;58.15;;;;;;;0.37;93.47;102442.28;10494576;28;20039;-80
2022/01/15 16:28:08;;;;;;;117.20;63.78;;;;;;;0.39;93.22;102439.16;10518238;28;20063;-79
2022/01/15 16:33:09;;;;;;;111.55;54.40;;;;;;;0.47;93.89;102436.53;10519464;28;20427;-75
2022/01/15 16:38:09;;;;;;;115.90;57.30;;;;;;;0.37;93.51;102435.47;10496143;28;20478;-78
2022/01/15 16:43:10;;;;;;;135.60;59.03;;;;;;;0.29;93.24;102438.84;10518835;28;20119;-79
2022/01/15 16:48:11;;;;;;;111.22;60.00;;;;;;;0.28;93.20;102437.00;10474353;28;20032;-78
2022/01/15 16:53:12;;;;;;;90.07;47.95;;;;;;;0.18;93.52;102424.72;10499029;28;20033;-78
2022/01/15 16:58:12;;;;;;;121.78;57.17;;;;;;;0.22;93.54;102408.88;10514680;28;20071;-78
2022/01/15 17:03:13;;;;;;;114.55;55.33;;;;;;;0.22;93.64;102407.97;10511070;28;20035;-78
2022/01/15 17:08:13;;;;;;;114.43;55.45;;;;;;;0.23;94.16;102407.22;10496732;28;20025;-78
2022/01/15 17:13:14;;;;;;;126.47;59.83;;;;;;;0.29;94.18;102406.25;10476830;28;20102;-78
2022/01/15 17:18:14;;;;;;;146.40;58.10;;;;;;;0.22;93.74;102395.09;10477126;28;20063;-79
2022/01/15 17:23:15;;;;;;;129.15;55.53;;;;;;;0.23;94.24;102389.22;10485159;28;20125;-78
2022/01/15 17:28:24;;;;;;;113.10;56.03;;;;;;;0.25;93.83;102380.00;10492420;28;20028;-78
2022/01/15 17:33:29;;;;;;;163.07;64.15;;;;;;;0.22;93.94;102369.34;10495078;28;20106;-78
2022/01/15 17:38:30;;;;;;;;;;;;;;;0.29;94.46;102367.63;10495004;28;20044;-78
2022/01/15 17:43:44;;;;;;;213.15;99.75;;;;;;;0.26;93.80;102366.38;10495025;28;19923;-78
2022/01/15 17:48:51;;;;;;;193.50;99.68;;;;;;;0.25;94.47;102373.16;10435886;28;20397;-78
2022/01/15 17:53:55;;;;;;;224.10;116.45;;;;;;;0.27;94.10;102370.78;10460414;28;20032;-78
2022/01/15 17:58:56;;;;;;;185.43;107.05;;;;;;;0.25;93.76;102377.41;10495257;28;20040;-78
2022/01/15 18:03:57;;;;;;;227.55;113.97;;;;;;;0.23;94.01;102361.78;10476132;28;20452;-78
2022/01/15 18:08:58;;;;;;;198.10;109.40;;;;;;;0.27;94.25;102357.91;10484473;28;20056;-79
2022/01/15 18:14:00;;;;;;;208.80;113.87;;;;;;;0.18;94.12;102350.03;10503755;28;20131;-79
2022/01/15 18:19:00;;;;;;;;;;;;;;;0.16;94.09;102351.53;10537561;28;20340;-79
2022/01/15 18:24:01;;;;;;;167.95;83.07;;;;;;;0.19;94.28;102344.16;10502270;28;19966;-78
2022/01/15 18:29:02;;;;;;;132.32;78.97;;;;;;;0.16;93.82;102345.47;10484406;28;20514;-78
2022/01/15 18:34:02;;;;;;;114.43;65.50;;;;;;;0.14;94.27;102340.13;10502929;28;20072;-78
2022/01/15 18:39:03;;;;;;;139.52;69.78;;;;;;;0.10;93.81;102340.53;10499348;28;20044;-78
2022/01/15 18:44:05;;;;;;;171.45;81.53;;;;;;;0.09;94.41;102331.91;10502480;28;20062;-78
2022/01/15 18:49:05;;;;;;;172.00;94.07;;;;;;;0.07;94.34;102327.31;10500062;28;20028;-78
2022/01/15 18:54:06;;;;;;;185.52;98.15;;;;;;;0.11;94.05;102330.41;10502982;28;20032;-78
2022/01/15 18:59:06;;;;;;;178.05;99.82;;;;;;;0.11;94.43;102335.56;10482369;28;20463;-78
2022/01/15 19:04:07;;;;;;;211.98;112.47;;;;;;;0.09;94.39;102344.78;10501333;28;20174;-78
2022/01/15 19:09:08;;;;;;;318.40;143.45;;;;;;;0.13;94.34;102361.47;10500173;28;20054;-78
2022/01/15 19:14:08;;;;;;;273.52;141.85;;;;;;;0.13;94.51;102412.97;10500954;28;20107;-78
2022/01/15 19:19:09;;;;;;;219.00;120.05;;;;;;;0.14;94.68;102495.56;10499619;28;20051;-78
2022/01/15 19:24:11;;;;;;;147.98;83.82;;;;;;;0.20;94.28;102466.13;10499535;28;20114;-78
2022/01/15 19:29:12;;;;;;;143.10;83.38;;;;;;;0.11;94.52;102417.97;10499800;28;20044;-77
2022/01/15 19:34:12;;;;;;;208.90;108.78;;;;;;;0.15;94.01;102298.19;10492625;28;20068;-78
2022/01/15 19:39:13;;;;;;;244.95;122.57;;;;;;;0.05;93.75;102208.72;10461226;28;20148;-78
2022/01/15 19:44:13;;;;;;;308.00;127.35;;;;;;;-0.02;94.08;102189.09;10480101;28;20490;-78
2022/01/15 19:49:14;;;;;;;270.02;133.00;;;;;;;-0.06;94.50;102260.66;10478788;28;20423;-78
2022/01/15 19:54:17;;;;;;;176.35;92.63;;;;;;;-0.06;94.41;102314.72;10496025;28;20032;-78
2022/01/15 19:59:17;;;;;;;246.48;127.85;;;;;;;-0.08;93.96;102337.69;10479519;28;20155;-77
2022/01/15 20:04:18;;;;;;;241.75;130.45;;;;;;;-0.13;93.77;102322.50;10497610;28;20028;-78
2022/01/15 20:09:20;;;;;;;295.63;134.32;;;;;;;-0.14;94.02;102293.25;10494886;28;20081;-78
2022/01/15 20:14:22;;;;;;;239.65;121.35;;;;;;;-0.12;93.95;102270.28;10494653;28;20028;-78
2022/01/15 20:19:23;;;;;;;225.55;107.75;;;;;;;-0.15;94.58;102281.13;10480109;28;20036;-78
2022/01/15 20:24:24;;;;;;;271.30;130.80;;;;;;;-0.14;93.97;102257.22;10496711;28;20025;-77
2022/01/15 20:29:25;;;;;;;211.45;117.38;;;;;;;-0.12;94.11;102301.16;10496348;28;20388;-77
2022/01/15 20:34:26;;;;;;;205.82;110.50;;;;;;;-0.11;94.54;102298.75;10496878;28;20029;-78
2022/01/15 20:39:27;;;;;;;231.85;110.72;;;;;;;-0.16;94.08;102307.59;10496683;28;20084;-77
2022/01/15 20:44:27;;;;;;;191.48;96.85;;;;;;;-0.15;94.62;102301.69;10497989;28;20078;-77
2022/01/15 20:49:27;;;;;;;222.30;98.00;;;;;;;-0.10;94.62;102308.28;10479171;28;20052;-78
2022/01/15 20:54:28;;;;;;;173.18;81.72;;;;;;;-0.10;94.12;102274.84;10495701;28;20063;-78
2022/01/15 20:59:28;;;;;;;169.77;85.07;;;;;;;-0.20;94.24;102288.34;10496869;28;20132;-78
2022/01/15 21:04:29;;;;;;;162.13;77.30;;;;;;;-0.19;94.03;102263.50;10497464;28;20068;-78
2022/01/15 21:09:29;;;;;;;146.90;75.47;;;;;;;-0.18;94.34;102266.25;10497742;28;20051;-78
2022/01/15 21:14:30;;;;;;;172.75;83.75;;;;;;;-0.16;94.29;102259.63;10495502;28;20509;-78
2022/01/15 21:19:30;;;;;;;165.63;80.72;;;;;;;-0.16;94.95;102246.75;10495514;28;20085;-78
2022/01/15 21:24:31;;;;;;;174.70;83.10;;;;;;;-0.15;94.77;102273.41;10494419;28;20486;-79
2022/01/15 21:29:31;;;;;;;183.40;85.78;;;;;;;-0.14;94.54;102258.88;10495014;28;20048;-77
2022/01/15 21:34:32;;;;;;;217.80;94.30;;;;;;;-0.17;94.13;102260.38;10493980;28;20400;-78
2022/01/15 21:39:33;;;;;;;197.00;93.55;;;;;;;-0.16;94.66;102267.34;10476601;28;20076;-78
2022/01/15 21:44:33;;;;;;;179.20;84.97;;;;;;;-0.16;94.35;102257.06;10477671;28;20036;-78
2022/01/15 21:49:34;;;;;;;184.02;91.15;;;;;;;-0.18;94.44;102260.19;10496376;28;20033;-78
2022/01/15 21:54:35;;;;;;;228.65;103.35;;;;;;;-0.14;94.00;102264.03;10493087;28;20033;-77
2022/01/15 21:59:35;;;;;;;248.40;119.80;;;;;;;-0.23;94.81;102240.72;10496872;28;20074;-78
2022/01/15 22:04:39;;;;;;;277.80;127.63;;;;;;;-0.26;94.41;102250.69;10476779;28;20380;-78
2022/01/15 22:09:39;;;;;;;208.68;107.50;;;;;;;-0.23;94.35;102246.81;10496185;28;20120;-78
2022/01/15 22:14:40;;;;;;;228.93;103.90;;;;;;;-0.16;94.66;102266.41;10443997;28;20032;-78
2022/01/15 22:19:41;;;;;;;236.45;103.70;;;;;;;-0.24;94.37;102269.78;10477116;28;20527;-77
2022/01/15 22:24:41;;;;;;;204.60;103.75;;;;;;;-0.32;94.08;102262.09;10492560;28;20111;-78
2022/01/15 22:29:42;;;;;;;252.13;100.22;;;;;;;-0.33;94.52;102257.69;10476360;28;20094;-77
2022/01/15 22:34:44;;;;;;;191.20;79.72;;;;;;;-0.34;94.60;102237.84;10494205;28;20028;-77
2022/01/15 22:39:45;;;;;;;168.80;75.72;;;;;;;-0.36;94.10;102234.19;10493144;28;20045;-78
2022/01/15 22:44:46;;;;;;;129.93;64.32;;;;;;;-0.36;94.59;102253.88;10492857;28;20025;-78
2022/01/15 22:49:46;;;;;;;141.68;68.20;;;;;;;-0.36;94.34;102252.19;10494676;28;20432;-78
2022/01/15 22:54:47;;;;;;;125.60;53.90;;;;;;;-0.35;94.74;102248.88;10483050;28;20067;-78
2022/01/15 22:59:47;;;;;;;92.93;47.30;;;;;;;-0.40;94.17;102244.88;10500452;28;20369;-78